sensor_id;sensor_type;location;lat;lon;timestamp;P1;durP1;ratioP1;P2;durP2;ratioP2
16436;SDS011;8328;52.206;21.006;2023-07-20T00:01:26;2.80;;;2.10;;
16436;SDS011;8328;52.206;21.006;2023-07-20T00:03:55;3.47;;;1.90;;
16436;SDS011;8328;52.206;21.006;2023-07-20T00:06:22;2.80;;;2.30;;
16436;SDS011;8328;52.206;21.006;2023-07-20T00:08:49;3.53;;;2.23;;
16436;SDS011;8328;52.206;21.006;2023-07-20T00:11:14;3.47;;;2.37;;
16436;SDS011;8328;52.206;21.006;2023-07-20T00:13:40;3.90;;;2.40;;
16436;SDS011;8328;52.206;21.006;2023-07-20T00:16:07;3.70;;;2.80;;
16436;SDS011;8328;52.206;21.006;2023-07-20T00:18:33;3.43;;;3.13;;
16436;SDS011;8328;52.206;21.006;2023-07-20T00:20:59;3.60;;;2.47;;
16436;SDS011;8328;52.206;21.006;2023-07-20T00:23:26;3.77;;;2.70;;
16436;SDS011;8328;52.206;21.006;2023-07-20T00:25:52;5.20;;;2.07;;
16436;SDS011;8328;52.206;21.006;2023-07-20T00:28:19;7.30;;;2.97;;
16436;SDS011;8328;52.206;21.006;2023-07-20T00:30:45;4.73;;;2.70;;
16436;SDS011;8328;52.206;21.006;2023-07-20T00:33:11;5.27;;;2.50;;
16436;SDS011;8328;52.206;21.006;2023-07-20T00:35:38;3.47;;;2.40;;
16436;SDS011;8328;52.206;21.006;2023-07-20T00:38:04;4.27;;;3.00;;
16436;SDS011;8328;52.206;21.006;2023-07-20T00:40:40;4.17;;;2.90;;
16436;SDS011;8328;52.206;21.006;2023-07-20T00:43:06;4.00;;;3.63;;
16436;SDS011;8328;52.206;21.006;2023-07-20T00:45:33;6.00;;;3.93;;
16436;SDS011;8328;52.206;21.006;2023-07-20T00:48:00;5.33;;;2.53;;
16436;SDS011;8328;52.206;21.006;2023-07-20T00:50:28;7.53;;;2.53;;
16436;SDS011;8328;52.206;21.006;2023-07-20T00:52:57;5.10;;;2.43;;
16436;SDS011;8328;52.206;21.006;2023-07-20T00:55:24;8.10;;;3.30;;
16436;SDS011;8328;52.206;21.006;2023-07-20T00:57:51;5.37;;;2.20;;
16436;SDS011;8328;52.206;21.006;2023-07-20T01:00:18;3.77;;;2.00;;
16436;SDS011;8328;52.206;21.006;2023-07-20T01:02:44;2.77;;;2.00;;
16436;SDS011;8328;52.206;21.006;2023-07-20T01:05:10;3.73;;;2.20;;
16436;SDS011;8328;52.206;21.006;2023-07-20T01:07:43;2.93;;;1.80;;
16436;SDS011;8328;52.206;21.006;2023-07-20T01:12:53;3.60;;;2.13;;
16436;SDS011;8328;52.206;21.006;2023-07-20T01:15:20;3.50;;;1.90;;
16436;SDS011;8328;52.206;21.006;2023-07-20T01:17:46;4.63;;;2.03;;
16436;SDS011;8328;52.206;21.006;2023-07-20T01:20:13;4.33;;;2.10;;
16436;SDS011;8328;52.206;21.006;2023-07-20T01:28:47;3.30;;;1.63;;
16436;SDS011;8328;52.206;21.006;2023-07-20T01:31:34;3.77;;;1.80;;
16436;SDS011;8328;52.206;21.006;2023-07-20T01:34:02;3.57;;;2.10;;
16436;SDS011;8328;52.206;21.006;2023-07-20T01:36:30;2.13;;;1.93;;
16436;SDS011;8328;52.206;21.006;2023-07-20T01:39:00;2.60;;;1.77;;
16436;SDS011;8328;52.206;21.006;2023-07-20T01:41:29;3.47;;;1.93;;
16436;SDS011;8328;52.206;21.006;2023-07-20T01:43:58;2.53;;;2.00;;
16436;SDS011;8328;52.206;21.006;2023-07-20T01:46:24;4.03;;;2.10;;
16436;SDS011;8328;52.206;21.006;2023-07-20T01:48:51;2.77;;;1.80;;
16436;SDS011;8328;52.206;21.006;2023-07-20T01:51:18;2.33;;;1.73;;
16436;SDS011;8328;52.206;21.006;2023-07-20T01:53:46;3.03;;;1.70;;
16436;SDS011;8328;52.206;21.006;2023-07-20T01:56:12;2.10;;;1.70;;
16436;SDS011;8328;52.206;21.006;2023-07-20T01:58:38;2.97;;;1.90;;
16436;SDS011;8328;52.206;21.006;2023-07-20T02:01:04;4.83;;;2.27;;
16436;SDS011;8328;52.206;21.006;2023-07-20T02:03:30;2.90;;;2.00;;
16436;SDS011;8328;52.206;21.006;2023-07-20T02:05:56;2.53;;;1.70;;
16436;SDS011;8328;52.206;21.006;2023-07-20T02:08:24;4.30;;;2.00;;
16436;SDS011;8328;52.206;21.006;2023-07-20T02:10:51;3.23;;;1.97;;
16436;SDS011;8328;52.206;21.006;2023-07-20T02:13:17;3.97;;;1.90;;
16436;SDS011;8328;52.206;21.006;2023-07-20T02:15:43;3.53;;;2.10;;
16436;SDS011;8328;52.206;21.006;2023-07-20T02:18:09;2.27;;;1.87;;
16436;SDS011;8328;52.206;21.006;2023-07-20T02:20:35;3.10;;;2.30;;
16436;SDS011;8328;52.206;21.006;2023-07-20T02:23:01;3.60;;;2.10;;
16436;SDS011;8328;52.206;21.006;2023-07-20T02:25:27;2.77;;;2.10;;
16436;SDS011;8328;52.206;21.006;2023-07-20T02:27:52;2.70;;;1.90;;
16436;SDS011;8328;52.206;21.006;2023-07-20T02:30:18;2.50;;;1.80;;
16436;SDS011;8328;52.206;21.006;2023-07-20T02:32:44;2.33;;;1.80;;
16436;SDS011;8328;52.206;21.006;2023-07-20T02:35:13;2.67;;;1.90;;
16436;SDS011;8328;52.206;21.006;2023-07-20T02:37:39;3.00;;;2.00;;
16436;SDS011;8328;52.206;21.006;2023-07-20T02:40:06;3.50;;;2.33;;
16436;SDS011;8328;52.206;21.006;2023-07-20T02:42:32;4.33;;;2.07;;
16436;SDS011;8328;52.206;21.006;2023-07-20T02:44:58;4.17;;;1.80;;
16436;SDS011;8328;52.206;21.006;2023-07-20T02:47:24;2.87;;;2.00;;
16436;SDS011;8328;52.206;21.006;2023-07-20T02:49:50;2.77;;;2.10;;
16436;SDS011;8328;52.206;21.006;2023-07-20T02:52:16;3.43;;;2.43;;
16436;SDS011;8328;52.206;21.006;2023-07-20T02:54:42;2.67;;;2.03;;
16436;SDS011;8328;52.206;21.006;2023-07-20T02:57:08;2.40;;;2.20;;
16436;SDS011;8328;52.206;21.006;2023-07-20T02:59:34;3.50;;;2.07;;
16436;SDS011;8328;52.206;21.006;2023-07-20T03:02:00;4.07;;;2.10;;
16436;SDS011;8328;52.206;21.006;2023-07-20T03:04:26;2.70;;;2.10;;
16436;SDS011;8328;52.206;21.006;2023-07-20T03:06:52;3.00;;;2.20;;
16436;SDS011;8328;52.206;21.006;2023-07-20T03:09:18;2.97;;;2.17;;
16436;SDS011;8328;52.206;21.006;2023-07-20T03:11:44;4.27;;;2.10;;
16436;SDS011;8328;52.206;21.006;2023-07-20T03:14:10;4.13;;;2.20;;
16436;SDS011;8328;52.206;21.006;2023-07-20T03:16:36;3.33;;;2.30;;
16436;SDS011;8328;52.206;21.006;2023-07-20T03:19:02;3.83;;;2.27;;
16436;SDS011;8328;52.206;21.006;2023-07-20T03:21:28;4.97;;;2.00;;
16436;SDS011;8328;52.206;21.006;2023-07-20T03:23:54;3.53;;;2.43;;
16436;SDS011;8328;52.206;21.006;2023-07-20T03:26:20;4.73;;;2.47;;
16436;SDS011;8328;52.206;21.006;2023-07-20T03:28:46;3.23;;;2.33;;
16436;SDS011;8328;52.206;21.006;2023-07-20T03:31:12;3.97;;;2.30;;
16436;SDS011;8328;52.206;21.006;2023-07-20T03:33:40;3.03;;;2.20;;
16436;SDS011;8328;52.206;21.006;2023-07-20T03:36:06;3.33;;;2.07;;
16436;SDS011;8328;52.206;21.006;2023-07-20T03:38:32;5.60;;;2.53;;
16436;SDS011;8328;52.206;21.006;2023-07-20T03:40:59;4.77;;;2.40;;
16436;SDS011;8328;52.206;21.006;2023-07-20T03:43:27;2.30;;;2.00;;
16436;SDS011;8328;52.206;21.006;2023-07-20T03:45:56;4.90;;;2.70;;
16436;SDS011;8328;52.206;21.006;2023-07-20T03:48:22;2.80;;;2.33;;
16436;SDS011;8328;52.206;21.006;2023-07-20T03:50:50;3.53;;;2.30;;
16436;SDS011;8328;52.206;21.006;2023-07-20T03:53:17;5.07;;;2.43;;
16436;SDS011;8328;52.206;21.006;2023-07-20T03:55:46;3.40;;;2.20;;
16436;SDS011;8328;52.206;21.006;2023-07-20T03:58:13;2.73;;;2.23;;
16436;SDS011;8328;52.206;21.006;2023-07-20T04:00:39;6.13;;;2.90;;
16436;SDS011;8328;52.206;21.006;2023-07-20T04:03:05;3.67;;;2.80;;
16436;SDS011;8328;52.206;21.006;2023-07-20T04:05:32;5.57;;;2.90;;
16436;SDS011;8328;52.206;21.006;2023-07-20T04:07:58;4.30;;;3.07;;
16436;SDS011;8328;52.206;21.006;2023-07-20T04:10:23;3.80;;;2.80;;
16436;SDS011;8328;52.206;21.006;2023-07-20T04:12:49;3.43;;;2.90;;
16436;SDS011;8328;52.206;21.006;2023-07-20T04:15:15;3.53;;;2.83;;
16436;SDS011;8328;52.206;21.006;2023-07-20T04:17:40;4.57;;;3.00;;
16436;SDS011;8328;52.206;21.006;2023-07-20T04:20:07;3.77;;;2.97;;
16436;SDS011;8328;52.206;21.006;2023-07-20T04:22:33;3.77;;;3.10;;
16436;SDS011;8328;52.206;21.006;2023-07-20T04:24:59;5.83;;;3.13;;
16436;SDS011;8328;52.206;21.006;2023-07-20T04:27:25;5.20;;;3.60;;
16436;SDS011;8328;52.206;21.006;2023-07-20T04:29:51;4.23;;;3.77;;
16436;SDS011;8328;52.206;21.006;2023-07-20T04:32:17;5.53;;;4.13;;
16436;SDS011;8328;52.206;21.006;2023-07-20T04:34:43;6.77;;;4.30;;
16436;SDS011;8328;52.206;21.006;2023-07-20T04:37:09;5.30;;;3.97;;
16436;SDS011;8328;52.206;21.006;2023-07-20T04:39:34;5.97;;;3.87;;
16436;SDS011;8328;52.206;21.006;2023-07-20T04:42:00;5.90;;;4.13;;
16436;SDS011;8328;52.206;21.006;2023-07-20T04:44:26;5.03;;;3.80;;
16436;SDS011;8328;52.206;21.006;2023-07-20T04:46:52;4.90;;;3.93;;
16436;SDS011;8328;52.206;21.006;2023-07-20T04:49:18;5.90;;;4.43;;
16436;SDS011;8328;52.206;21.006;2023-07-20T04:51:45;6.20;;;4.20;;
16436;SDS011;8328;52.206;21.006;2023-07-20T04:54:10;5.13;;;4.20;;
16436;SDS011;8328;52.206;21.006;2023-07-20T04:56:36;5.57;;;4.27;;
16436;SDS011;8328;52.206;21.006;2023-07-20T04:59:02;5.83;;;4.20;;
16436;SDS011;8328;52.206;21.006;2023-07-20T05:01:28;5.80;;;4.30;;
16436;SDS011;8328;52.206;21.006;2023-07-20T05:03:54;5.47;;;4.00;;
16436;SDS011;8328;52.206;21.006;2023-07-20T05:06:20;5.13;;;4.57;;
16436;SDS011;8328;52.206;21.006;2023-07-20T05:08:45;5.73;;;4.07;;
16436;SDS011;8328;52.206;21.006;2023-07-20T05:11:11;8.57;;;4.40;;
16436;SDS011;8328;52.206;21.006;2023-07-20T05:13:38;6.23;;;4.23;;
16436;SDS011;8328;52.206;21.006;2023-07-20T05:16:03;8.57;;;4.27;;
16436;SDS011;8328;52.206;21.006;2023-07-20T05:18:29;4.73;;;4.23;;
16436;SDS011;8328;52.206;21.006;2023-07-20T05:20:56;6.83;;;4.30;;
16436;SDS011;8328;52.206;21.006;2023-07-20T05:23:22;5.70;;;3.70;;
16436;SDS011;8328;52.206;21.006;2023-07-20T05:25:55;6.03;;;4.47;;
16436;SDS011;8328;52.206;21.006;2023-07-20T05:28:21;8.03;;;4.33;;
16436;SDS011;8328;52.206;21.006;2023-07-20T05:30:47;5.00;;;4.00;;
16436;SDS011;8328;52.206;21.006;2023-07-20T05:33:14;6.77;;;4.93;;
16436;SDS011;8328;52.206;21.006;2023-07-20T05:35:39;6.27;;;4.17;;
16436;SDS011;8328;52.206;21.006;2023-07-20T05:38:05;6.03;;;3.97;;
16436;SDS011;8328;52.206;21.006;2023-07-20T05:40:31;6.27;;;4.60;;
16436;SDS011;8328;52.206;21.006;2023-07-20T05:42:57;5.33;;;3.70;;
16436;SDS011;8328;52.206;21.006;2023-07-20T05:45:24;5.13;;;3.97;;
16436;SDS011;8328;52.206;21.006;2023-07-20T05:47:49;4.83;;;4.17;;
16436;SDS011;8328;52.206;21.006;2023-07-20T05:50:15;5.43;;;4.37;;
16436;SDS011;8328;52.206;21.006;2023-07-20T05:52:41;5.67;;;4.20;;
16436;SDS011;8328;52.206;21.006;2023-07-20T05:55:07;5.07;;;3.80;;
16436;SDS011;8328;52.206;21.006;2023-07-20T05:57:33;4.97;;;4.03;;
16436;SDS011;8328;52.206;21.006;2023-07-20T06:00:00;5.07;;;4.57;;
16436;SDS011;8328;52.206;21.006;2023-07-20T06:02:27;4.50;;;4.10;;
16436;SDS011;8328;52.206;21.006;2023-07-20T06:04:53;5.60;;;4.37;;
16436;SDS011;8328;52.206;21.006;2023-07-20T06:07:20;6.83;;;4.30;;
16436;SDS011;8328;52.206;21.006;2023-07-20T06:09:45;5.13;;;4.00;;
16436;SDS011;8328;52.206;21.006;2023-07-20T06:12:11;16.60;;;13.93;;
16436;SDS011;8328;52.206;21.006;2023-07-20T06:14:37;7.20;;;4.37;;
16436;SDS011;8328;52.206;21.006;2023-07-20T06:17:03;6.00;;;4.60;;
16436;SDS011;8328;52.206;21.006;2023-07-20T06:19:30;7.57;;;6.73;;
16436;SDS011;8328;52.206;21.006;2023-07-20T06:21:55;6.07;;;4.73;;
16436;SDS011;8328;52.206;21.006;2023-07-20T06:24:21;6.83;;;4.60;;
16436;SDS011;8328;52.206;21.006;2023-07-20T06:26:47;10.43;;;6.67;;
16436;SDS011;8328;52.206;21.006;2023-07-20T06:29:13;5.93;;;5.13;;
16436;SDS011;8328;52.206;21.006;2023-07-20T06:31:39;9.73;;;7.50;;
16436;SDS011;8328;52.206;21.006;2023-07-20T06:34:05;5.73;;;5.10;;
16436;SDS011;8328;52.206;21.006;2023-07-20T06:36:31;11.73;;;9.87;;
16436;SDS011;8328;52.206;21.006;2023-07-20T06:38:57;10.67;;;9.53;;
16436;SDS011;8328;52.206;21.006;2023-07-20T06:41:23;12.17;;;6.57;;
16436;SDS011;8328;52.206;21.006;2023-07-20T06:43:49;9.30;;;6.23;;
16436;SDS011;8328;52.206;21.006;2023-07-20T06:46:23;6.20;;;5.50;;
16436;SDS011;8328;52.206;21.006;2023-07-20T06:48:49;9.77;;;6.90;;
16436;SDS011;8328;52.206;21.006;2023-07-20T06:51:14;10.17;;;5.30;;
16436;SDS011;8328;52.206;21.006;2023-07-20T06:53:41;11.10;;;6.67;;
16436;SDS011;8328;52.206;21.006;2023-07-20T06:56:07;12.93;;;7.80;;
16436;SDS011;8328;52.206;21.006;2023-07-20T06:58:32;10.97;;;7.77;;
16436;SDS011;8328;52.206;21.006;2023-07-20T07:00:59;9.03;;;5.93;;
16436;SDS011;8328;52.206;21.006;2023-07-20T07:03:30;9.93;;;6.60;;
16436;SDS011;8328;52.206;21.006;2023-07-20T07:05:56;9.30;;;4.97;;
16436;SDS011;8328;52.206;21.006;2023-07-20T07:08:22;7.50;;;4.63;;
16436;SDS011;8328;52.206;21.006;2023-07-20T07:10:48;8.17;;;5.33;;
16436;SDS011;8328;52.206;21.006;2023-07-20T07:13:14;7.77;;;5.20;;
16436;SDS011;8328;52.206;21.006;2023-07-20T07:15:40;7.87;;;5.57;;
16436;SDS011;8328;52.206;21.006;2023-07-20T07:18:06;6.17;;;5.40;;
16436;SDS011;8328;52.206;21.006;2023-07-20T07:20:32;8.00;;;4.97;;
16436;SDS011;8328;52.206;21.006;2023-07-20T07:22:58;5.77;;;4.93;;
16436;SDS011;8328;52.206;21.006;2023-07-20T07:25:24;6.63;;;4.60;;
16436;SDS011;8328;52.206;21.006;2023-07-20T07:27:50;6.23;;;4.53;;
16436;SDS011;8328;52.206;21.006;2023-07-20T07:30:17;6.17;;;4.60;;
16436;SDS011;8328;52.206;21.006;2023-07-20T07:32:43;5.27;;;4.10;;
16436;SDS011;8328;52.206;21.006;2023-07-20T07:35:09;5.30;;;4.57;;
16436;SDS011;8328;52.206;21.006;2023-07-20T07:37:35;6.43;;;4.90;;
16436;SDS011;8328;52.206;21.006;2023-07-20T07:40:01;6.60;;;4.53;;
16436;SDS011;8328;52.206;21.006;2023-07-20T07:42:28;6.63;;;3.80;;
16436;SDS011;8328;52.206;21.006;2023-07-20T07:44:54;9.87;;;4.70;;
16436;SDS011;8328;52.206;21.006;2023-07-20T07:47:20;4.93;;;3.77;;
16436;SDS011;8328;52.206;21.006;2023-07-20T07:49:46;6.00;;;4.13;;
16436;SDS011;8328;52.206;21.006;2023-07-20T07:52:12;5.53;;;4.00;;
16436;SDS011;8328;52.206;21.006;2023-07-20T07:54:39;6.30;;;3.77;;
16436;SDS011;8328;52.206;21.006;2023-07-20T07:57:05;9.53;;;4.93;;
16436;SDS011;8328;52.206;21.006;2023-07-20T07:59:31;8.37;;;3.83;;
16436;SDS011;8328;52.206;21.006;2023-07-20T08:02:04;10.37;;;4.83;;
16436;SDS011;8328;52.206;21.006;2023-07-20T08:04:30;5.33;;;4.03;;
16436;SDS011;8328;52.206;21.006;2023-07-20T08:06:56;5.00;;;4.33;;
16436;SDS011;8328;52.206;21.006;2023-07-20T08:09:24;5.67;;;4.33;;
16436;SDS011;8328;52.206;21.006;2023-07-20T08:11:56;7.30;;;5.03;;
16436;SDS011;8328;52.206;21.006;2023-07-20T08:14:22;5.40;;;4.83;;
16436;SDS011;8328;52.206;21.006;2023-07-20T08:16:48;8.37;;;4.97;;
16436;SDS011;8328;52.206;21.006;2023-07-20T08:19:14;8.63;;;7.00;;
16436;SDS011;8328;52.206;21.006;2023-07-20T08:21:40;6.27;;;4.70;;
16436;SDS011;8328;52.206;21.006;2023-07-20T08:24:06;7.73;;;4.90;;
16436;SDS011;8328;52.206;21.006;2023-07-20T08:26:32;5.23;;;4.73;;
16436;SDS011;8328;52.206;21.006;2023-07-20T08:28:58;7.30;;;5.13;;
16436;SDS011;8328;52.206;21.006;2023-07-20T08:31:24;7.43;;;5.60;;
16436;SDS011;8328;52.206;21.006;2023-07-20T08:33:50;7.30;;;5.10;;
16436;SDS011;8328;52.206;21.006;2023-07-20T08:36:16;6.10;;;5.00;;
16436;SDS011;8328;52.206;21.006;2023-07-20T08:38:42;6.53;;;4.60;;
16436;SDS011;8328;52.206;21.006;2023-07-20T08:41:08;7.27;;;4.20;;
16436;SDS011;8328;52.206;21.006;2023-07-20T08:43:34;4.80;;;4.30;;
16436;SDS011;8328;52.206;21.006;2023-07-20T08:46:04;7.20;;;4.67;;
16436;SDS011;8328;52.206;21.006;2023-07-20T08:48:30;7.23;;;4.50;;
16436;SDS011;8328;52.206;21.006;2023-07-20T08:50:57;5.30;;;4.73;;
16436;SDS011;8328;52.206;21.006;2023-07-20T08:53:25;7.50;;;5.20;;
16436;SDS011;8328;52.206;21.006;2023-07-20T08:55:51;6.60;;;4.73;;
16436;SDS011;8328;52.206;21.006;2023-07-20T08:58:17;6.03;;;4.30;;
16436;SDS011;8328;52.206;21.006;2023-07-20T09:00:44;5.00;;;4.47;;
16436;SDS011;8328;52.206;21.006;2023-07-20T09:03:10;4.30;;;3.80;;
16436;SDS011;8328;52.206;21.006;2023-07-20T09:05:37;6.77;;;3.90;;
16436;SDS011;8328;52.206;21.006;2023-07-20T09:08:05;6.20;;;4.20;;
16436;SDS011;8328;52.206;21.006;2023-07-20T09:10:31;7.60;;;3.77;;
16436;SDS011;8328;52.206;21.006;2023-07-20T09:12:56;8.73;;;4.47;;
16436;SDS011;8328;52.206;21.006;2023-07-20T09:15:22;5.70;;;4.03;;
16436;SDS011;8328;52.206;21.006;2023-07-20T09:17:51;4.37;;;3.43;;
16436;SDS011;8328;52.206;21.006;2023-07-20T09:20:19;4.80;;;3.87;;
16436;SDS011;8328;52.206;21.006;2023-07-20T09:22:46;5.87;;;4.00;;
16436;SDS011;8328;52.206;21.006;2023-07-20T09:25:12;7.60;;;4.23;;
16436;SDS011;8328;52.206;21.006;2023-07-20T09:27:47;5.83;;;4.30;;
16436;SDS011;8328;52.206;21.006;2023-07-20T09:30:15;4.53;;;3.87;;
16436;SDS011;8328;52.206;21.006;2023-07-20T09:32:45;6.00;;;3.83;;
16436;SDS011;8328;52.206;21.006;2023-07-20T09:35:15;5.33;;;3.53;;
16436;SDS011;8328;52.206;21.006;2023-07-20T09:37:46;4.23;;;3.83;;
16436;SDS011;8328;52.206;21.006;2023-07-20T09:40:37;4.47;;;3.47;;
16436;SDS011;8328;52.206;21.006;2023-07-20T09:43:09;5.07;;;4.13;;
16436;SDS011;8328;52.206;21.006;2023-07-20T09:45:41;4.00;;;2.77;;
16436;SDS011;8328;52.206;21.006;2023-07-20T09:48:10;3.50;;;2.60;;
16436;SDS011;8328;52.206;21.006;2023-07-20T09:50:40;3.13;;;2.70;;
16436;SDS011;8328;52.206;21.006;2023-07-20T09:53:09;5.90;;;2.80;;
16436;SDS011;8328;52.206;21.006;2023-07-20T09:55:39;2.33;;;1.90;;
16436;SDS011;8328;52.206;21.006;2023-07-20T09:58:08;2.57;;;1.97;;
16436;SDS011;8328;52.206;21.006;2023-07-20T10:00:37;3.93;;;2.20;;
16436;SDS011;8328;52.206;21.006;2023-07-20T10:03:05;3.53;;;2.10;;
16436;SDS011;8328;52.206;21.006;2023-07-20T10:05:35;2.83;;;2.40;;
16436;SDS011;8328;52.206;21.006;2023-07-20T10:08:04;2.93;;;2.40;;
16436;SDS011;8328;52.206;21.006;2023-07-20T10:10:34;2.70;;;2.23;;
16436;SDS011;8328;52.206;21.006;2023-07-20T10:13:03;3.30;;;2.17;;
16436;SDS011;8328;52.206;21.006;2023-07-20T10:15:40;3.80;;;2.23;;
16436;SDS011;8328;52.206;21.006;2023-07-20T10:18:37;3.80;;;2.30;;
16436;SDS011;8328;52.206;21.006;2023-07-20T10:21:13;3.03;;;2.37;;
16436;SDS011;8328;52.206;21.006;2023-07-20T10:23:42;4.27;;;2.47;;
16436;SDS011;8328;52.206;21.006;2023-07-20T10:26:08;5.57;;;2.70;;
16436;SDS011;8328;52.206;21.006;2023-07-20T10:28:35;3.50;;;2.60;;
16436;SDS011;8328;52.206;21.006;2023-07-20T10:31:01;4.90;;;3.60;;
16436;SDS011;8328;52.206;21.006;2023-07-20T10:33:28;3.20;;;2.57;;
16436;SDS011;8328;52.206;21.006;2023-07-20T10:35:55;5.20;;;3.37;;
16436;SDS011;8328;52.206;21.006;2023-07-20T10:43:43;5.97;;;4.30;;
16436;SDS011;8328;52.206;21.006;2023-07-20T10:46:10;3.93;;;2.60;;
16436;SDS011;8328;52.206;21.006;2023-07-20T10:48:58;4.50;;;3.00;;
16436;SDS011;8328;52.206;21.006;2023-07-20T10:51:29;3.03;;;2.03;;
16436;SDS011;8328;52.206;21.006;2023-07-20T10:53:58;2.93;;;2.40;;
16436;SDS011;8328;52.206;21.006;2023-07-20T10:56:27;2.63;;;2.10;;
16436;SDS011;8328;52.206;21.006;2023-07-20T10:59:00;2.70;;;2.50;;
16436;SDS011;8328;52.206;21.006;2023-07-20T11:01:29;2.90;;;2.60;;
16436;SDS011;8328;52.206;21.006;2023-07-20T11:03:59;2.60;;;2.40;;
16436;SDS011;8328;52.206;21.006;2023-07-20T11:11:30;2.60;;;2.40;;
16436;SDS011;8328;52.206;21.006;2023-07-20T11:14:00;3.90;;;3.50;;
16436;SDS011;8328;52.206;21.006;2023-07-20T11:16:35;2.73;;;2.43;;
16436;SDS011;8328;52.206;21.006;2023-07-20T11:19:18;5.50;;;2.37;;
16436;SDS011;8328;52.206;21.006;2023-07-20T11:21:46;4.97;;;2.70;;
16436;SDS011;8328;52.206;21.006;2023-07-20T11:24:15;2.73;;;2.20;;
16436;SDS011;8328;52.206;21.006;2023-07-20T11:29:15;3.67;;;2.10;;
16436;SDS011;8328;52.206;21.006;2023-07-20T11:31:42;3.13;;;2.23;;
16436;SDS011;8328;52.206;21.006;2023-07-20T11:34:13;2.77;;;2.33;;
16436;SDS011;8328;52.206;21.006;2023-07-20T11:36:42;2.67;;;2.00;;
16436;SDS011;8328;52.206;21.006;2023-07-20T11:39:10;2.03;;;1.83;;
16436;SDS011;8328;52.206;21.006;2023-07-20T11:41:38;3.93;;;2.20;;
16436;SDS011;8328;52.206;21.006;2023-07-20T11:44:05;2.87;;;1.90;;
16436;SDS011;8328;52.206;21.006;2023-07-20T11:46:32;2.20;;;2.00;;
16436;SDS011;8328;52.206;21.006;2023-07-20T11:48:59;3.70;;;2.23;;
16436;SDS011;8328;52.206;21.006;2023-07-20T11:51:30;3.50;;;1.90;;
16436;SDS011;8328;52.206;21.006;2023-07-20T11:53:57;2.10;;;1.90;;
16436;SDS011;8328;52.206;21.006;2023-07-20T11:56:25;3.23;;;2.00;;
16436;SDS011;8328;52.206;21.006;2023-07-20T11:58:54;2.97;;;2.10;;
16436;SDS011;8328;52.206;21.006;2023-07-20T12:01:23;2.40;;;2.17;;
16436;SDS011;8328;52.206;21.006;2023-07-20T12:03:48;2.43;;;1.80;;
16436;SDS011;8328;52.206;21.006;2023-07-20T12:06:18;3.40;;;2.07;;
16436;SDS011;8328;52.206;21.006;2023-07-20T12:08:44;2.20;;;2.00;;
16436;SDS011;8328;52.206;21.006;2023-07-20T12:11:10;2.17;;;1.60;;
16436;SDS011;8328;52.206;21.006;2023-07-20T12:13:38;2.23;;;1.70;;
16436;SDS011;8328;52.206;21.006;2023-07-20T12:16:10;2.23;;;1.93;;
16436;SDS011;8328;52.206;21.006;2023-07-20T12:18:40;3.30;;;1.90;;
16436;SDS011;8328;52.206;21.006;2023-07-20T12:21:07;2.53;;;1.90;;
16436;SDS011;8328;52.206;21.006;2023-07-20T12:23:37;1.83;;;1.70;;
16436;SDS011;8328;52.206;21.006;2023-07-20T12:26:08;2.70;;;1.97;;
16436;SDS011;8328;52.206;21.006;2023-07-20T12:28:41;2.63;;;2.00;;
16436;SDS011;8328;52.206;21.006;2023-07-20T12:31:10;1.90;;;1.70;;
16436;SDS011;8328;52.206;21.006;2023-07-20T12:33:36;2.73;;;1.90;;
16436;SDS011;8328;52.206;21.006;2023-07-20T12:36:03;1.67;;;1.40;;
16436;SDS011;8328;52.206;21.006;2023-07-20T12:38:33;3.10;;;1.50;;
16436;SDS011;8328;52.206;21.006;2023-07-20T12:41:00;2.73;;;1.70;;
16436;SDS011;8328;52.206;21.006;2023-07-20T12:43:26;2.37;;;1.93;;
16436;SDS011;8328;52.206;21.006;2023-07-20T12:45:53;2.57;;;1.80;;
16436;SDS011;8328;52.206;21.006;2023-07-20T12:48:20;1.83;;;1.57;;
16436;SDS011;8328;52.206;21.006;2023-07-20T12:50:46;3.77;;;1.90;;
16436;SDS011;8328;52.206;21.006;2023-07-20T12:53:12;1.87;;;1.70;;
16436;SDS011;8328;52.206;21.006;2023-07-20T12:55:38;2.53;;;1.90;;
16436;SDS011;8328;52.206;21.006;2023-07-20T12:58:05;2.83;;;2.00;;
16436;SDS011;8328;52.206;21.006;2023-07-20T13:00:31;1.70;;;1.60;;
16436;SDS011;8328;52.206;21.006;2023-07-20T13:02:57;2.90;;;1.80;;
16436;SDS011;8328;52.206;21.006;2023-07-20T13:05:23;4.83;;;1.50;;
16436;SDS011;8328;52.206;21.006;2023-07-20T13:07:52;2.43;;;1.80;;
16436;SDS011;8328;52.206;21.006;2023-07-20T13:10:18;2.00;;;1.70;;
16436;SDS011;8328;52.206;21.006;2023-07-20T13:12:44;3.60;;;2.07;;
16436;SDS011;8328;52.206;21.006;2023-07-20T13:15:11;5.00;;;2.43;;
16436;SDS011;8328;52.206;21.006;2023-07-20T13:17:40;6.13;;;2.10;;
16436;SDS011;8328;52.206;21.006;2023-07-20T13:20:06;2.60;;;1.77;;
16436;SDS011;8328;52.206;21.006;2023-07-20T13:22:35;2.20;;;1.60;;
16436;SDS011;8328;52.206;21.006;2023-07-20T13:25:01;2.17;;;1.87;;
16436;SDS011;8328;52.206;21.006;2023-07-20T13:27:27;3.00;;;2.30;;
16436;SDS011;8328;52.206;21.006;2023-07-20T13:29:55;3.20;;;2.23;;
16436;SDS011;8328;52.206;21.006;2023-07-20T13:32:21;2.30;;;2.10;;
16436;SDS011;8328;52.206;21.006;2023-07-20T13:34:47;2.40;;;1.97;;
16436;SDS011;8328;52.206;21.006;2023-07-20T13:37:14;3.30;;;2.57;;
16436;SDS011;8328;52.206;21.006;2023-07-20T13:39:41;4.40;;;2.40;;
16436;SDS011;8328;52.206;21.006;2023-07-20T13:42:07;2.30;;;2.10;;
16436;SDS011;8328;52.206;21.006;2023-07-20T13:44:35;3.33;;;2.50;;
16436;SDS011;8328;52.206;21.006;2023-07-20T13:47:02;2.97;;;2.33;;
16436;SDS011;8328;52.206;21.006;2023-07-20T13:49:30;2.90;;;2.60;;
16436;SDS011;8328;52.206;21.006;2023-07-20T13:51:57;2.57;;;2.30;;
16436;SDS011;8328;52.206;21.006;2023-07-20T13:54:24;3.40;;;2.30;;
16436;SDS011;8328;52.206;21.006;2023-07-20T13:56:50;3.73;;;2.20;;
16436;SDS011;8328;52.206;21.006;2023-07-20T13:59:16;2.47;;;2.00;;
16436;SDS011;8328;52.206;21.006;2023-07-20T14:01:42;2.70;;;2.07;;
16436;SDS011;8328;52.206;21.006;2023-07-20T14:04:08;2.50;;;2.03;;
16436;SDS011;8328;52.206;21.006;2023-07-20T14:06:34;3.97;;;2.20;;
16436;SDS011;8328;52.206;21.006;2023-07-20T14:09:01;2.47;;;2.10;;
16436;SDS011;8328;52.206;21.006;2023-07-20T14:11:29;3.57;;;2.30;;
16436;SDS011;8328;52.206;21.006;2023-07-20T14:13:55;3.17;;;2.07;;
16436;SDS011;8328;52.206;21.006;2023-07-20T14:16:23;4.40;;;2.30;;
16436;SDS011;8328;52.206;21.006;2023-07-20T14:18:49;2.23;;;1.70;;
16436;SDS011;8328;52.206;21.006;2023-07-20T14:21:16;3.50;;;2.00;;
16436;SDS011;8328;52.206;21.006;2023-07-20T14:23:47;1.70;;;1.60;;
16436;SDS011;8328;52.206;21.006;2023-07-20T14:26:18;2.73;;;2.10;;
16436;SDS011;8328;52.206;21.006;2023-07-20T14:28:44;1.80;;;1.70;;
16436;SDS011;8328;52.206;21.006;2023-07-20T14:31:10;2.30;;;2.10;;
16436;SDS011;8328;52.206;21.006;2023-07-20T14:33:36;1.93;;;1.60;;
16436;SDS011;8328;52.206;21.006;2023-07-20T14:36:05;1.83;;;1.50;;
16436;SDS011;8328;52.206;21.006;2023-07-20T14:38:31;1.60;;;1.50;;
16436;SDS011;8328;52.206;21.006;2023-07-20T14:40:57;1.50;;;1.40;;
16436;SDS011;8328;52.206;21.006;2023-07-20T14:43:23;1.80;;;1.30;;
16436;SDS011;8328;52.206;21.006;2023-07-20T14:45:49;1.30;;;1.20;;
16436;SDS011;8328;52.206;21.006;2023-07-20T14:48:15;1.47;;;1.30;;
16436;SDS011;8328;52.206;21.006;2023-07-20T14:50:41;3.37;;;1.50;;
16436;SDS011;8328;52.206;21.006;2023-07-20T14:53:10;1.50;;;1.40;;
16436;SDS011;8328;52.206;21.006;2023-07-20T14:55:37;1.70;;;1.33;;
16436;SDS011;8328;52.206;21.006;2023-07-20T14:58:03;3.70;;;1.53;;
16436;SDS011;8328;52.206;21.006;2023-07-20T15:00:29;2.13;;;1.53;;
16436;SDS011;8328;52.206;21.006;2023-07-20T15:02:55;1.43;;;1.33;;
16436;SDS011;8328;52.206;21.006;2023-07-20T15:05:22;2.60;;;1.50;;
16436;SDS011;8328;52.206;21.006;2023-07-20T15:07:48;1.50;;;1.37;;
16436;SDS011;8328;52.206;21.006;2023-07-20T15:10:14;1.90;;;1.33;;